Flight Track Log - Related Links

Times and Time Zones

All times are in EDT time to prevent confusion due to time zone crossing. See the ASQ4310 flight status page for this flight to view local times or setup timezone preferences in your user account.

Time Position Orientation Groundspeed Altitude Reporting Facility
EDT Latitude Longitude Course Direction KTS MPH feet Rate Location/Type
Tue 08:50:00 PM 30.2892 -95.5120 332° Northwest  Level FlightAware Approximate
Tue 08:51:00 PM 30.3908 -95.5726 334° Northwest  Level FlightAware Approximate
Tue 08:52:00 PM 30.4938 -95.6299 334° Northwest  Level FlightAware Approximate
Tue 08:53:00 PM 30.5987 -95.6826 337° Northwest  Level FlightAware Approximate
Tue 08:54:00 PM 30.7037 -95.7352 337° Northwest  Level FlightAware Approximate
Tue 08:55:00 PM 30.8076 -95.7905 335° Northwest  Level FlightAware Approximate
Tue 08:56:00 PM 30.9111 -95.8469 335° Northwest  Level FlightAware Approximate
Tue 08:57:00 PM 31.0146 -95.9034 335° Northwest  Level FlightAware Approximate
Tue 08:58:00 PM 31.1152 -95.9652 319° Northwest  Level FlightAware Approximate
Tue 08:59:00 PM 31.2284 -95.9806 354° North  Level FlightAware Approximate
Tue 09:00:00 PM 31.3344 -96.0169 350° North  Level FlightAware Approximate
Tue 09:01:00 PM 31.4468 -96.0409 350° North  Level FlightAware Approximate
Tue 09:02:00 PM 31.5592 -96.0651 350° North  Level FlightAware Approximate
Tue 09:03:00 PM 31.6713 -96.0909 350° North  Level FlightAware Approximate
Tue 09:04:00 PM 31.7840 -96.1135 350° North  Level FlightAware Approximate
Tue 09:05:00 PM 31.8964 -96.1381 349° North  Level FlightAware Approximate
Tue 09:06:00 PM 32.0080 -96.1666 346° North  Level FlightAware Approximate
Tue 09:07:00 PM 32.1191 -96.1983 346° North  Level FlightAware Approximate
Tue 09:08:00 PM 32.2315 -96.2167 North  Level FlightAware Approximate
Tue 09:09:00 PM 32.3458 -96.2167 North  Level FlightAware Approximate
Tue 09:10:00 PM 32.4601 -96.2167 North  Level FlightAware Approximate
Tue 09:11:00 PM 32.5744 -96.2167 North  Level FlightAware Approximate
Tue 09:12:00 PM 32.6887 -96.2167 North  Level FlightAware Approximate
Tue 09:13:00 PM 32.8029 -96.2167 North  Level FlightAware Approximate
Tue 09:14:00 PM 32.9172 -96.2167 North  Level FlightAware Approximate
Tue 09:15:00 PM 33.0315 -96.2167 North  Level FlightAware Approximate
Tue 09:16:00 PM 33.1458 -96.2167 North  Level FlightAware Approximate
Tue 09:17:00 PM 33.2600 -96.2197 358° North  Level FlightAware Approximate
Tue 09:18:00 PM 33.3742 -96.2254 358° North  Level FlightAware Approximate
Tue 09:19:00 PM 33.4884 -96.2311 358° North  Level FlightAware Approximate
Tue 09:20:00 PM 33.6020 -96.2216 North  Level FlightAware Approximate
Tue 09:21:00 PM 33.7151 -96.2021 North  Level FlightAware Approximate
Tue 09:22:00 PM 33.8282 -96.1826 North  Level FlightAware Approximate
Tue 09:23:00 PM 33.9413 -96.1630 North  Level FlightAware Approximate
Tue 09:24:00 PM 34.0545 -96.1436 North  Level FlightAware Approximate
Tue 09:25:00 PM 34.1677 -96.1245 North  Level FlightAware Approximate
Tue 09:26:00 PM 34.2808 -96.1053 North  Level FlightAware Approximate
Tue 09:27:00 PM 34.3940 -96.0861 North  Level FlightAware Approximate
Tue 09:28:00 PM 34.5072 -96.0668 North  Level FlightAware Approximate
Tue 09:29:00 PM 34.6204 -96.0475 North  Level FlightAware Approximate
Tue 09:30:00 PM 34.7335 -96.0281 North  Level FlightAware Approximate
Tue 09:31:00 PM 34.8467 -96.0085 North  Level FlightAware Approximate
Tue 09:32:00 PM 34.9598 -95.9888 North  Level FlightAware Approximate
Tue 09:33:00 PM 35.0729 -95.9690 North  Level FlightAware Approximate
Tue 09:34:00 PM 35.1861 -95.9492 North  Level FlightAware Approximate
Tue 09:35:00 PM 35.2992 -95.9293 North  Level FlightAware Approximate
Tue 09:36:00 PM 35.4123 -95.9093 North  Level FlightAware Approximate
Tue 09:37:00 PM 35.5254 -95.8893 North  Level FlightAware Approximate
Tue 09:38:00 PM 35.6385 -95.8692 North  Level FlightAware Approximate
Tue 09:39:00 PM 35.7517 -95.8491 North  Level FlightAware Approximate
Tue 09:40:00 PM 35.8648 -95.8289 North  Level FlightAware Approximate
Tue 09:41:00 PM 35.9781 -95.8107 North  Level FlightAware Approximate
Tue 09:42:00 PM 36.0917 -95.7956 North  Level FlightAware Approximate
Tue 09:43:00 PM 36.2047 -95.7762 15° North  Level FlightAware Approximate
Tue 09:44:00 PM 36.3151 -95.7395 15° North  Level FlightAware Approximate
Tue 09:45:00 PM 36.4255 -95.7030 15° North  Level FlightAware Approximate
Tue 09:46:00 PM 36.5361 -95.6672 15° North  Level FlightAware Approximate
Tue 09:47:00 PM 36.6467 -95.6312 15° North  Level FlightAware Approximate
Tue 09:48:00 PM 36.7573 -95.5952 15° North  Level FlightAware Approximate
Tue 09:49:00 PM 36.8678 -95.5590 15° North  Level FlightAware Approximate
Tue 09:50:00 PM 36.9784 -95.5227 15° North  Level FlightAware Approximate
Tue 09:51:00 PM 37.0889 -95.4864 15° North  Level FlightAware Approximate
Tue 09:52:00 PM 37.1994 -95.4499 15° North  Level FlightAware Approximate
Tue 09:53:00 PM 37.3099 -95.4133 15° North  Level FlightAware Approximate
Tue 09:54:00 PM 37.4192 -95.3712 18° North  Level FlightAware Approximate
Tue 09:55:00 PM 37.5277 -95.3260 18° North  Level FlightAware Approximate
Tue 09:56:00 PM 37.6379 -95.2884 14° North  Level FlightAware Approximate
Tue 09:57:00 PM 37.7487 -95.2526 14° North  Level FlightAware Approximate
Tue 09:58:00 PM 37.8594 -95.2168 14° North  Level FlightAware Approximate
Tue 09:59:00 PM 37.9701 -95.1808 14° North  Level FlightAware Approximate
Tue 10:00:00 PM 38.0808 -95.1447 14° North  Level FlightAware Approximate
Tue 10:01:00 PM 38.1914 -95.1081 15° North  Level FlightAware Approximate
Tue 10:02:00 PM 38.3016 -95.0698 15° North  Level FlightAware Approximate
Tue 10:03:00 PM 38.4119 -95.0314 15° North  Level FlightAware Approximate
Tue 10:04:00 PM 38.5221 -94.9928 15° North  Level FlightAware Approximate
Tue 10:05:00 PM 38.6323 -94.9542 15° North  Level FlightAware Approximate
Tue 10:06:00 PM 38.7425 -94.9154 15° North  Level FlightAware Approximate
Tue 10:07:00 PM 38.8528 -94.8769 14° North  Level FlightAware Approximate
Tue 10:08:00 PM 38.9634 -94.8402 14° North  Level FlightAware Approximate
Tue 10:09:00 PM 39.0741 -94.8033 14° North  Level FlightAware Approximate
Tue 10:10:00 PM 39.1847 -94.7664 15° North  Level FlightAware Approximate
Tue 10:11:00 PM 39.2949 -94.7276 21° North  Level FlightAware Approximate
Tue 10:12:00 PM 39.4015 -94.6743 21° North  Level FlightAware Approximate
Tue 10:13:00 PM 39.5081 -94.6211 21° North  Level FlightAware Approximate
Tue 10:14:00 PM 39.6148 -94.5677 21° North  Level FlightAware Approximate
Tue 10:15:00 PM 39.7214 -94.5143 21° North  Level FlightAware Approximate
Tue 10:16:00 PM 39.8281 -94.4610 21° North  Level FlightAware Approximate
Tue 10:17:00 PM 39.9348 -94.4076 21° North  Level FlightAware Approximate
Tue 10:18:00 PM 40.0415 -94.3543 21° North  Level FlightAware Approximate
Tue 10:19:00 PM 40.1459 -94.2937 21° North  Level FlightAware Approximate
Tue 10:20:00 PM 40.2537 -94.2438 19° North  Level FlightAware Approximate
Tue 10:21:00 PM 40.3610 -94.1927 27° Northeast  Level FlightAware Approximate
Tue 10:22:00 PM 40.4659 -94.1338 21° North  Level FlightAware Approximate
Tue 10:23:00 PM 40.5728 -94.0803 21° North  Level FlightAware Approximate
Tue 10:24:00 PM 40.6796 -94.0270 21° North  Level FlightAware Approximate
Tue 10:25:00 PM 40.7865 -93.9734 21° North  Level FlightAware Approximate
Tue 10:26:00 PM 40.8944 -93.9278 21° North  Level FlightAware Approximate
Tue 10:27:00 PM 40.9975 -93.8628 27° Northeast  Level FlightAware Approximate
Tue 10:28:00 PM 41.1047 -93.8109 18° North  Level FlightAware Approximate
Tue 10:29:00 PM 41.2118 -93.7583 23° Northeast  Level FlightAware Approximate
Tue 10:30:00 PM 41.3173 -93.6996 27° Northeast  Level FlightAware Approximate
Tue 10:31:00 PM 41.4219 -93.6390 21° North  Level FlightAware Approximate
Tue 10:32:00 PM 41.5333 -93.6500 North  Level FlightAware Approximate
Tue 10:33:00 PM 41.5340 -93.6631 North  Level Estimated
Tue 10:34:00 PM 41.5340 -93.6631 North  Level Estimated
Tue 10:35:00 PM 41.5340 -93.6631 North  Level Estimated
Tue 10:36:00 PM 41.5340 -93.6631 North  Level Estimated
Tue 10:37:00 PM 41.5340 -93.6631 North  Level Estimated
Tue 10:38:00 PM 41.5340 -93.6631 North  Level Estimated
Tue 10:39:00 PM 41.5340 -93.6631 North  Level Estimated
Tue 10:40:00 PM 41.5340 -93.6631 North  Level Estimated
Tue 10:41:00 PM 41.5340 -93.6631 North  Level Estimated
Tue 10:42:00 PM 41.5340 -93.6631 North  Level Estimated

Login

Don't have an account? Register now (free) for customized features, flight alerts, and more!